Time,TemperatureF,DewpointF,PressureIn,WindDirection,WindDirectionDegrees,WindSpeedMPH,WindSpeedGustMPH,Humidity,HourlyPrecipIn,Conditions,Clouds,dailyrainin,SoftwareType,DateUTC
2013-06-18 00:02:00,73.0,55.0,-100.00,NNW,330,7.0,10.0,53,0.00,,,-99.99,,2013-06-18 05:02:00,
2013-06-18 00:12:00,72.0,55.0,-100.00,NW,325,6.0,8.0,54,0.00,,,-99.99,,2013-06-18 05:12:00,
2013-06-18 00:22:00,72.0,55.0,-100.00,NNW,330,7.0,9.0,55,0.00,,,-99.99,,2013-06-18 05:22:00,
2013-06-18 00:34:00,72.0,55.0,-100.00,NNW,340,7.0,11.0,56,0.00,,,-99.99,,2013-06-18 05:34:00,
2013-06-18 00:43:00,71.0,56.0,-100.00,NNW,330,7.0,10.0,58,0.00,,,-99.99,,2013-06-18 05:43:00,
2013-06-18 00:53:00,71.0,56.0,-100.00,NNW,330,8.0,11.0,59,0.00,,,-99.99,,2013-06-18 05:53:00,
2013-06-18 01:02:00,71.0,56.0,-100.00,NW,325,7.0,11.0,60,0.00,,,-99.99,,2013-06-18 06:02:00,
2013-06-18 01:11:00,70.0,56.0,-100.00,NNW,330,7.0,10.0,61,0.00,,,-99.99,,2013-06-18 06:11:00,
2013-06-18 01:23:00,70.0,56.0,-100.00,NNW,340,7.0,10.0,62,0.00,,,-99.99,,2013-06-18 06:23:00,
2013-06-18 01:32:00,69.0,56.0,-100.00,NNW,335,7.0,10.0,63,0.00,,,-99.99,,2013-06-18 06:32:00,
2013-06-18 01:43:00,69.0,56.0,-100.00,NNW,330,7.0,10.0,64,0.00,,,-99.99,,2013-06-18 06:43:00,
2013-06-18 01:52:00,69.0,56.0,-100.00,NNW,335,7.0,11.0,63,0.00,,,-99.99,,2013-06-18 06:52:00,
2013-06-18 02:02:00,69.0,56.0,-100.00,NNW,335,6.0,9.0,65,0.00,,,-99.99,,2013-06-18 07:02:00,
2013-06-18 02:12:00,68.0,56.0,-100.00,NNW,330,4.0,7.0,66,0.00,,,-99.99,,2013-06-18 07:12:00,
2013-06-18 02:22:00,68.0,56.0,-100.00,NNW,330,3.0,6.0,67,0.00,,,-99.99,,2013-06-18 07:22:00,
2013-06-18 02:33:00,68.0,57.0,-100.00,NW,320,2.0,6.0,68,0.00,,,-99.99,,2013-06-18 07:33:00,
2013-06-18 02:43:00,67.0,58.0,-100.00,North,5,2.0,6.0,73,0.00,,,-99.99,,2013-06-18 07:43:00,
2013-06-18 02:52:00,66.0,57.0,-100.00,NW,320,4.0,6.0,71,0.00,,,-99.99,,2013-06-18 07:52:00,
2013-06-18 03:01:00,66.0,57.0,-100.00,North,0,1.0,6.0,72,0.00,,,-99.99,,2013-06-18 08:01:00,
2013-06-18 03:11:00,63.0,59.0,-100.00,SW,220,2.0,3.0,85,0.00,,,-99.99,,2013-06-18 08:11:00,
2013-06-18 03:23:00,63.0,60.0,-100.00,WSW,250,1.0,3.0,90,0.00,,,-99.99,,2013-06-18 08:23:00,
2013-06-18 03:33:00,62.0,60.0,-100.00,SSW,205,1.0,2.0,92,0.00,,,-99.99,,2013-06-18 08:33:00,
2013-06-18 03:43:00,62.0,60.0,-100.00,SSW,200,0.0,1.0,92,0.00,,,-99.99,,2013-06-18 08:43:00,
2013-06-18 03:52:00,62.0,60.0,-100.00,South,170,0.0,1.0,92,0.00,,,-99.99,,2013-06-18 08:52:00,
2013-06-18 04:02:00,62.0,59.0,-100.00,ENE,75,1.0,2.0,93,0.00,,,-99.99,,2013-06-18 09:02:00,
2013-06-18 04:12:00,61.0,59.0,-100.00,SSE,150,0.0,1.0,94,0.00,,,-99.99,,2013-06-18 09:12:00,
2013-06-18 04:22:00,61.0,60.0,-100.00,South,185,1.0,2.0,97,0.00,,,-99.99,,2013-06-18 09:22:00,
2013-06-18 04:34:00,60.0,60.0,-100.00,SSE,165,0.0,2.0,99,0.00,,,-99.99,,2013-06-18 09:34:00,
2013-06-18 04:43:00,61.0,60.0,-100.00,South,185,0.0,2.0,96,0.00,,,-99.99,,2013-06-18 09:43:00,
2013-06-18 04:53:00,60.0,60.0,-100.00,South,175,2.0,3.0,99,0.00,,,-99.99,,2013-06-18 09:53:00,
2013-06-18 05:02:00,60.0,60.0,-100.00,South,175,0.0,3.0,99,0.00,,,-99.99,,2013-06-18 10:02:00,
2013-06-18 05:11:00,60.0,60.0,-100.00,NE,40,2.0,3.0,99,0.00,,,-99.99,,2013-06-18 10:11:00,
2013-06-18 05:22:00,62.0,59.0,-100.00,NNE,25,4.0,6.0,92,0.00,,,-99.99,,2013-06-18 10:22:00,
2013-06-18 05:33:00,63.0,59.0,-100.00,NNW,340,3.0,7.0,85,0.00,,,-99.99,,2013-06-18 10:33:00,
2013-06-18 05:43:00,63.0,59.0,-100.00,NNW,340,3.0,7.0,85,0.00,,,-99.99,,2013-06-18 10:43:00,
2013-06-18 05:53:00,62.0,59.0,-100.00,NW,310,1.0,7.0,90,0.00,,,-99.99,,2013-06-18 10:53:00,
2013-06-18 06:02:00,61.0,59.0,-100.00,SSW,210,2.0,3.0,94,0.00,,,-99.99,,2013-06-18 11:02:00,
2013-06-18 06:11:00,60.0,60.0,-100.00,SW,220,1.0,4.0,99,0.00,,,-99.99,,2013-06-18 11:11:00,
2013-06-18 06:22:00,60.0,60.0,-100.00,South,190,0.0,2.0,99,0.00,,,-99.99,,2013-06-18 11:22:00,
2013-06-18 06:32:00,60.0,60.0,-100.00,SSW,210,1.0,2.0,99,0.00,,,-99.99,,2013-06-18 11:32:00,
2013-06-18 06:43:00,60.0,60.0,-100.00,ESE,120,0.0,1.0,99,0.00,,,-99.99,,2013-06-18 11:43:00,
2013-06-18 06:52:00,61.0,61.0,-100.00,SE,130,1.0,4.0,99,0.00,,,-99.99,,2013-06-18 11:52:00,
2013-06-18 07:01:00,61.0,61.0,-100.00,South,170,2.0,4.0,99,0.00,,,-99.99,,2013-06-18 12:01:00,
2013-06-18 07:11:00,61.0,61.0,-100.00,SSW,205,1.0,3.0,99,0.00,,,-99.99,,2013-06-18 12:11:00,
2013-06-18 07:22:00,62.0,62.0,-100.00,NW,305,3.0,4.0,99,0.00,,,-99.99,,2013-06-18 12:22:00,
2013-06-18 07:33:00,63.0,62.0,-100.00,WNW,295,1.0,5.0,97,0.00,,,-99.99,,2013-06-18 12:33:00,
2013-06-18 07:43:00,64.0,63.0,-100.00,SSW,210,3.0,4.0,97,0.00,,,-99.99,,2013-06-18 12:43:00,
2013-06-18 07:52:00,65.0,65.0,-100.00,WSW,240,4.0,4.0,99,0.00,,,-99.99,,2013-06-18 12:52:00,
2013-06-18 08:02:00,65.0,64.0,-100.00,West,260,2.0,4.0,94,0.00,,,-99.99,,2013-06-18 13:02:00,
2013-06-18 08:12:00,67.0,64.0,-100.00,SW,235,2.0,6.0,90,0.00,,,-99.99,,2013-06-18 13:12:00,
2013-06-18 08:22:00,68.0,63.0,-100.00,NNW,335,2.0,4.0,82,0.00,,,-99.99,,2013-06-18 13:22:00,
2013-06-18 08:33:00,69.0,63.0,-100.00,WSW,255,2.0,5.0,81,0.00,,,-99.99,,2013-06-18 13:33:00,
2013-06-18 08:43:00,69.0,63.0,-100.00,WSW,255,2.0,5.0,81,0.00,,,-99.99,,2013-06-18 13:43:00,
2013-06-18 08:52:00,71.0,64.0,-100.00,WNW,295,2.0,4.0,79,0.00,,,-99.99,,2013-06-18 13:52:00,
2013-06-18 09:02:00,72.0,63.0,-100.00,WNW,285,2.0,7.0,74,0.00,,,-99.99,,2013-06-18 14:02:00,
2013-06-18 09:11:00,73.0,64.0,-100.00,NW,325,1.0,5.0,72,0.00,,,-99.99,,2013-06-18 14:11:00,
2013-06-18 09:22:00,73.0,65.0,-100.00,NE,55,4.0,7.0,74,0.00,,,-99.99,,2013-06-18 14:22:00,
2013-06-18 09:33:00,75.0,65.0,-100.00,North,0,2.0,9.0,71,0.00,,,-99.99,,2013-06-18 14:33:00,
2013-06-18 09:43:00,76.0,65.0,-100.00,NE,45,1.0,6.0,69,0.00,,,-99.99,,2013-06-18 14:43:00,
2013-06-18 09:53:00,76.0,66.0,-100.00,ESE,120,3.0,7.0,70,0.00,,,-99.99,,2013-06-18 14:53:00,
2013-06-18 10:02:00,76.0,65.0,-100.00,ESE,110,4.0,6.0,69,0.00,,,-99.99,,2013-06-18 15:02:00,
2013-06-18 10:11:00,78.0,67.0,-100.00,SSW,195,0.0,4.0,68,0.00,,,-99.99,,2013-06-18 15:11:00,
2013-06-18 10:22:00,78.0,65.0,-100.00,NW,305,2.0,6.0,64,0.00,,,-99.99,,2013-06-18 15:22:00,
2013-06-18 10:33:00,78.0,64.0,-100.00,WNW,300,6.0,9.0,63,0.00,,,-99.99,,2013-06-18 15:33:00,
2013-06-18 10:43:00,78.0,65.0,-100.00,NNE,15,4.0,9.0,64,0.00,,,-99.99,,2013-06-18 15:43:00,
2013-06-18 10:53:00,78.0,65.0,-100.00,WNW,295,5.0,9.0,65,0.00,,,-99.99,,2013-06-18 15:53:00,
2013-06-18 11:01:00,79.0,64.0,-100.00,NW,320,6.0,11.0,61,0.00,,,-99.99,,2013-06-18 16:01:00,
2013-06-18 11:11:00,79.0,64.0,-100.00,NW,315,8.0,12.0,61,0.00,,,-99.99,,2013-06-18 16:11:00,
2013-06-18 11:22:00,80.0,65.0,-100.00,NW,305,6.0,9.0,59,0.00,,,-99.99,,2013-06-18 16:22:00,
2013-06-18 11:33:00,80.0,63.0,-100.00,North,0,9.0,15.0,55,0.00,,,-99.99,,2013-06-18 16:33:00,
2013-06-18 11:43:00,80.0,63.0,-100.00,North,350,8.0,14.0,54,0.00,,,-99.99,,2013-06-18 16:43:00,
2013-06-18 11:53:00,81.0,65.0,-100.00,NW,320,7.0,12.0,57,0.00,,,-99.99,,2013-06-18 16:53:00,
2013-06-18 12:02:00,80.0,63.0,-100.00,NNE,15,3.0,10.0,55,0.00,,,-99.99,,2013-06-18 17:02:00,
2013-06-18 12:11:00,80.0,64.0,-100.00,North,0,6.0,9.0,57,0.00,,,-99.99,,2013-06-18 17:11:00,
2013-06-18 12:22:00,81.0,63.0,-100.00,North,0,4.0,11.0,56,0.00,,,-99.99,,2013-06-18 17:22:00,
2013-06-18 12:33:00,81.0,62.0,-100.00,North,0,10.0,16.0,54,0.00,,,-99.99,,2013-06-18 17:33:00,
2013-06-18 12:43:00,80.0,60.0,-100.00,North,0,6.0,13.0,50,0.00,,,-99.99,,2013-06-18 17:43:00,
2013-06-18 12:53:00,81.0,65.0,-100.00,North,10,8.0,11.0,57,0.00,,,-99.99,,2013-06-18 17:53:00,
2013-06-18 13:02:00,80.0,65.0,-100.00,ENE,70,6.0,10.0,58,0.00,,,-99.99,,2013-06-18 18:02:00,
2013-06-18 13:11:00,81.0,63.0,-100.00,North,0,5.0,9.0,54,0.00,,,-99.99,,2013-06-18 18:11:00,
2013-06-18 13:22:00,80.0,63.0,-100.00,NE,50,5.0,13.0,56,0.00,,,-99.99,,2013-06-18 18:22:00,
2013-06-18 13:33:00,81.0,65.0,-100.00,NE,55,4.0,10.0,58,0.00,,,-99.99,,2013-06-18 18:33:00,
2013-06-18 13:42:00,80.0,63.0,-100.00,NNE,30,1.0,7.0,54,0.00,,,-99.99,,2013-06-18 18:42:00,
2013-06-18 13:53:00,80.0,62.0,-100.00,NE,40,6.0,9.0,53,0.00,,,-99.99,,2013-06-18 18:53:00,
2013-06-18 14:01:00,80.0,62.0,-100.00,NE,40,6.0,9.0,53,0.00,,,-99.99,,2013-06-18 19:01:00,
2013-06-18 14:11:00,79.0,60.0,-100.00,NNE,20,6.0,11.0,51,0.00,,,-99.99,,2013-06-18 19:11:00,
2013-06-18 14:22:00,79.0,62.0,-100.00,NNE,30,5.0,10.0,54,0.00,,,-99.99,,2013-06-18 19:22:00,
2013-06-18 14:33:00,82.0,62.0,-100.00,ENE,60,2.0,7.0,50,0.00,,,-99.99,,2013-06-18 19:33:00,
2013-06-18 14:43:00,82.0,61.0,-100.00,NW,315,4.0,9.0,50,0.00,,,-99.99,,2013-06-18 19:43:00,
2013-06-18 14:52:00,82.0,62.0,-100.00,NE,40,7.0,9.0,49,0.00,,,-99.99,,2013-06-18 19:52:00,
2013-06-18 15:02:00,83.0,62.0,-100.00,North,0,3.0,9.0,48,0.00,,,-99.99,,2013-06-18 20:02:00,
2013-06-18 15:11:00,83.0,64.0,-100.00,East,85,4.0,10.0,52,0.00,,,-99.99,,2013-06-18 20:11:00,
2013-06-18 15:23:00,83.0,60.0,-100.00,NW,310,1.0,7.0,45,0.00,,,-99.99,,2013-06-18 20:23:00,
2013-06-18 15:33:00,81.0,62.0,-100.00,NE,45,6.0,9.0,51,0.00,,,-99.99,,2013-06-18 20:33:00,
2013-06-18 15:43:00,81.0,63.0,-100.00,East,85,6.0,11.0,53,0.00,,,-99.99,,2013-06-18 20:43:00,
2013-06-18 15:52:00,82.0,63.0,-100.00,East,100,5.0,10.0,53,0.00,,,-99.99,,2013-06-18 20:52:00,
2013-06-18 16:01:00,82.0,62.0,-100.00,ESE,105,6.0,11.0,50,0.00,,,-99.99,,2013-06-18 21:01:00,
2013-06-18 16:11:00,83.0,62.0,-100.00,NNE,20,4.0,11.0,49,0.00,,,-99.99,,2013-06-18 21:11:00,
2013-06-18 16:23:00,82.0,64.0,-100.00,East,90,4.0,8.0,54,0.00,,,-99.99,,2013-06-18 21:23:00,
2013-06-18 16:33:00,82.0,62.0,-100.00,ENE,60,7.0,11.0,49,0.00,,,-99.99,,2013-06-18 21:33:00,
2013-06-18 16:43:00,82.0,62.0,-100.00,ENE,60,7.0,11.0,49,0.00,,,-99.99,,2013-06-18 21:43:00,
2013-06-18 16:52:00,83.0,64.0,-100.00,NE,40,4.0,7.0,52,0.00,,,-99.99,,2013-06-18 21:52:00,
2013-06-18 17:01:00,83.0,61.0,-100.00,NE,50,4.0,7.0,46,0.00,,,-99.99,,2013-06-18 22:01:00,
2013-06-18 17:11:00,83.0,64.0,-100.00,East,100,2.0,5.0,52,0.00,,,-99.99,,2013-06-18 22:11:00,
2013-06-18 17:22:00,82.0,63.0,-100.00,East,100,6.0,9.0,51,0.00,,,-99.99,,2013-06-18 22:22:00,
2013-06-18 17:34:00,83.0,60.0,-100.00,ESE,110,2.0,7.0,46,0.00,,,-99.99,,2013-06-18 22:34:00,
2013-06-18 17:43:00,83.0,63.0,-100.00,ESE,105,4.0,6.0,49,0.00,,,-99.99,,2013-06-18 22:43:00,
2013-06-18 17:53:00,83.0,63.0,-100.00,NE,55,4.0,7.0,50,0.00,,,-99.99,,2013-06-18 22:53:00,
2013-06-18 18:02:00,83.0,62.0,-100.00,ENE,60,3.0,7.0,48,0.00,,,-99.99,,2013-06-18 23:02:00,
2013-06-18 18:11:00,83.0,62.0,-100.00,NE,50,6.0,9.0,48,0.00,,,-99.99,,2013-06-18 23:11:00,
2013-06-18 18:23:00,82.0,62.0,-100.00,East,90,4.0,8.0,50,0.00,,,-99.99,,2013-06-18 23:23:00,
2013-06-18 18:36:00,82.0,62.0,-100.00,ESE,105,3.0,6.0,49,0.00,,,-99.99,,2013-06-18 23:36:00,
2013-06-18 18:45:00,81.0,63.0,-100.00,East,90,7.0,15.0,55,0.00,,,-99.99,,2013-06-18 23:45:00,
2013-06-18 18:53:00,81.0,62.0,-100.00,ENE,75,10.0,13.0,51,0.00,,,-99.99,,2013-06-18 23:53:00,
2013-06-18 19:01:00,80.0,63.0,-100.00,ESE,110,6.0,11.0,55,0.00,,,-99.99,,2013-06-19 00:01:00,
2013-06-18 19:11:00,80.0,62.0,-100.00,East,85,7.0,9.0,53,0.00,,,-99.99,,2013-06-19 00:11:00,
2013-06-18 19:22:00,80.0,61.0,-100.00,East,80,6.0,9.0,52,0.00,,,-99.99,,2013-06-19 00:22:00,
2013-06-18 19:33:00,80.0,61.0,-100.00,ESE,105,6.0,7.0,52,0.00,,,-99.99,,2013-06-19 00:33:00,
2013-06-18 19:43:00,79.0,62.0,-100.00,ESE,105,4.0,8.0,55,0.00,,,-99.99,,2013-06-19 00:43:00,
2013-06-18 19:53:00,79.0,61.0,-100.00,ESE,105,4.0,7.0,53,0.00,,,-99.99,,2013-06-19 00:53:00,
2013-06-18 20:01:00,79.0,62.0,-100.00,East,100,4.0,6.0,55,0.00,,,-99.99,,2013-06-19 01:01:00,
2013-06-18 20:11:00,78.0,61.0,-100.00,East,100,6.0,8.0,56,0.00,,,-99.99,,2013-06-19 01:11:00,
2013-06-18 20:22:00,78.0,61.0,-100.00,East,100,3.0,8.0,56,0.00,,,-99.99,,2013-06-19 01:22:00,
2013-06-18 20:32:00,77.0,62.0,-100.00,East,100,2.0,5.0,60,0.00,,,-99.99,,2013-06-19 01:32:00,
2013-06-18 20:42:00,76.0,62.0,-100.00,ESE,105,3.0,6.0,62,0.00,,,-99.99,,2013-06-19 01:42:00,
2013-06-18 20:53:00,76.0,62.0,-100.00,East,100,3.0,5.0,62,0.00,,,-99.99,,2013-06-19 01:53:00,
2013-06-18 21:01:00,75.0,63.0,-100.00,East,95,2.0,5.0,66,0.00,,,-99.99,,2013-06-19 02:01:00,
2013-06-18 21:11:00,75.0,64.0,-100.00,ESE,105,3.0,5.0,67,0.00,,,-99.99,,2013-06-19 02:11:00,
2013-06-18 21:21:00,74.0,63.0,-100.00,ESE,120,2.0,4.0,67,0.00,,,-99.99,,2013-06-19 02:21:00,
2013-06-18 21:32:00,74.0,63.0,-100.00,SE,125,4.0,6.0,68,0.00,,,-99.99,,2013-06-19 02:32:00,
2013-06-18 21:42:00,74.0,62.0,-100.00,ESE,115,4.0,6.0,67,0.00,,,-99.99,,2013-06-19 02:42:00,
2013-06-18 21:51:00,73.0,63.0,-100.00,ESE,110,4.0,6.0,69,0.00,,,-99.99,,2013-06-19 02:51:00,
2013-06-18 22:01:00,73.0,64.0,-100.00,SE,130,6.0,7.0,72,0.00,,,-99.99,,2013-06-19 03:01:00,
2013-06-18 22:11:00,73.0,63.0,-100.00,SE,125,4.0,7.0,72,0.00,,,-99.99,,2013-06-19 03:11:00,
2013-06-18 22:22:00,72.0,63.0,-100.00,ESE,110,3.0,6.0,72,0.00,,,-99.99,,2013-06-19 03:22:00,
2013-06-18 22:33:00,73.0,63.0,-100.00,East,95,3.0,6.0,70,0.00,,,-99.99,,2013-06-19 03:33:00,
2013-06-18 22:42:00,72.0,62.0,-100.00,East,85,4.0,6.0,70,0.00,,,-99.99,,2013-06-19 03:42:00,
2013-06-18 22:52:00,72.0,63.0,-100.00,East,100,1.0,5.0,72,0.00,,,-99.99,,2013-06-19 03:52:00,
2013-06-18 23:01:00,71.0,64.0,-100.00,ENE,65,2.0,3.0,77,0.00,,,-99.99,,2013-06-19 04:01:00,
2013-06-18 23:11:00,70.0,64.0,-100.00,NNE,25,1.0,3.0,79,0.00,,,-99.99,,2013-06-19 04:11:00,
2013-06-18 23:22:00,70.0,63.0,-100.00,NE,50,1.0,2.0,81,0.00,,,-99.99,,2013-06-19 04:22:00,
2013-06-18 23:32:00,69.0,63.0,-100.00,East,90,1.0,3.0,81,0.00,,,-99.99,,2013-06-19 04:32:00,
2013-06-18 23:42:00,69.0,63.0,-100.00,NE,55,1.0,4.0,82,0.00,,,-99.99,,2013-06-19 04:42:00,
2013-06-18 23:53:00,69.0,64.0,-100.00,NE,55,1.0,3.0,83,0.00,,,-99.99,,2013-06-19 04:53:00,